Time;durP1;ratioP1;P1;durP2;ratioP2;P2;SDS_P1;SDS_P2;PMS_P1;PMS_P2;Temp;Humidity;BMP_temperature;BMP_pressure;BME280_temperature;BME280_humidity;BME280_pressure;Samples;Min_cycle;Max_cycle;Signal;HPM_P1;HPM_P2
2021/05/23 00:02:21;;;;;;;6.45;1.50;;;;;;;;;;3618757;39;20405;-62
2021/05/23 00:04:47;;;;;;;3.90;1.55;;;;;;;;;;3617546;39;20047;-62
2021/05/23 00:07:13;;;;;;;4.15;1.45;;;;;;;;;;3618629;39;20359;-62
2021/05/23 00:09:40;;;;;;;4.72;1.35;;;;;;;;;;3618609;39;20088;-62
2021/05/23 00:12:07;;;;;;;4.68;1.50;;;;;;;;;;3617941;39;20128;-61
2021/05/23 00:14:32;;;;;;;5.03;1.50;;;;;;;;;;3607719;39;20067;-61
2021/05/23 00:16:58;;;;;;;4.07;1.27;;;;;;;;;;3617129;39;20393;-62
2021/05/23 00:19:24;;;;;;;3.42;1.10;;;;;;;;;;3618430;39;20039;-62
2021/05/23 00:21:49;;;;;;;3.55;1.42;;;;;;;;;;3617154;39;20031;-62
2021/05/23 00:24:15;;;;;;;3.20;1.25;;;;;;;;;;3606862;39;20058;-62
2021/05/23 00:26:40;;;;;;;3.85;1.27;;;;;;;;;;3618150;39;21539;-61
2021/05/23 00:29:06;;;;;;;5.28;1.60;;;;;;;;;;3618451;39;20448;-62
2021/05/23 00:31:33;;;;;;;6.63;1.42;;;;;;;;;;3618311;39;20346;-61
2021/05/23 00:33:58;;;;;;;9.88;1.85;;;;;;;;;;3617869;39;20043;-62
2021/05/23 00:36:25;;;;;;;4.95;1.20;;;;;;;;;;3618214;39;20132;-62
2021/05/23 00:38:50;;;;;;;9.48;2.00;;;;;;;;;;3619008;39;20507;-62
2021/05/23 00:41:16;;;;;;;5.35;1.63;;;;;;;;;;3616740;39;20047;-62
2021/05/23 00:43:41;;;;;;;5.28;1.90;;;;;;;;;;3618594;39;20034;-62
2021/05/23 00:46:07;;;;;;;7.25;1.45;;;;;;;;;;3618204;39;20031;-62
2021/05/23 00:48:32;;;;;;;3.85;1.50;;;;;;;;;;3618587;39;20039;-62
2021/05/23 00:50:58;;;;;;;7.93;1.73;;;;;;;;;;3616318;39;20060;-62
2021/05/23 00:53:23;;;;;;;4.40;1.27;;;;;;;;;;3616787;39;20032;-61
2021/05/23 00:55:49;;;;;;;1.95;0.77;;;;;;;;;;3616515;39;20054;-62
2021/05/23 00:58:15;;;;;;;4.88;1.73;;;;;;;;;;3616288;39;20051;-61
2021/05/23 01:00:40;;;;;;;3.83;1.20;;;;;;;;;;3616375;39;20123;-61
2021/05/23 01:03:25;;;;;;;3.75;1.52;;;;;;;;;;3617580;39;20046;-61
2021/05/23 01:05:53;;;;;;;8.38;1.73;;;;;;;;;;3607182;39;20066;-61
2021/05/23 01:08:21;;;;;;;5.10;1.63;;;;;;;;;;3615688;39;20043;-61
2021/05/23 01:11:06;;;;;;;4.70;1.30;;;;;;;;;;3616466;39;20047;-61
2021/05/23 01:13:35;;;;;;;2.90;1.20;;;;;;;;;;3606438;39;20290;-61
2021/05/23 01:16:18;;;;;;;3.83;1.17;;;;;;;;;;3615869;39;20112;-61
2021/05/23 01:18:51;;;;;;;5.40;1.45;;;;;;;;;;3616559;39;20031;-61
2021/05/23 01:21:19;;;;;;;2.97;1.10;;;;;;;;;;3616166;39;20028;-61
2021/05/23 01:23:49;;;;;;;4.50;1.50;;;;;;;;;;3616453;39;20328;-61
2021/05/23 01:26:15;;;;;;;4.03;1.30;;;;;;;;;;3616050;39;20035;-61
2021/05/23 01:28:52;;;;;;;2.85;1.05;;;;;;;;;;3616800;39;20613;-61
2021/05/23 01:31:20;;;;;;;4.55;1.63;;;;;;;;;;3616090;39;20250;-61
2021/05/23 01:33:53;;;;;;;3.28;1.00;;;;;;;;;;3615022;39;20055;-61
2021/05/23 01:36:22;;;;;;;6.63;1.30;;;;;;;;;;3606861;39;20042;-61
2021/05/23 01:38:48;;;;;;;3.88;1.48;;;;;;;;;;3616759;39;20028;-62
2021/05/23 01:41:13;;;;;;;3.10;1.20;;;;;;;;;;3616129;39;20038;-61
2021/05/23 01:43:39;;;;;;;4.03;1.30;;;;;;;;;;3617693;39;20051;-62
2021/05/23 01:46:06;;;;;;;4.43;1.38;;;;;;;;;;3617486;39;20019;-62
2021/05/23 01:48:36;;;;;;;1.92;0.73;;;;;;;;;;3618657;39;20259;-61
2021/05/23 01:51:01;;;;;;;4.22;1.30;;;;;;;;;;3615792;39;20043;-62
2021/05/23 01:53:27;;;;;;;5.03;1.25;;;;;;;;;;3617194;39;20027;-62
2021/05/23 01:55:52;;;;;;;3.75;1.42;;;;;;;;;;3617702;39;20045;-61
2021/05/23 01:58:18;;;;;;;3.80;1.20;;;;;;;;;;3617698;39;20064;-61
2021/05/23 02:00:49;;;;;;;7.57;1.90;;;;;;;;;;3615470;39;20384;-62
2021/05/23 02:03:17;;;;;;;7.35;1.63;;;;;;;;;;3616533;39;20031;-62
2021/05/23 02:05:48;;;;;;;4.97;1.27;;;;;;;;;;3618063;39;20031;-62
2021/05/23 02:08:14;;;;;;;;;;;;;;;;;;3616493;39;20028;-62
2021/05/23 02:10:40;;;;;;;4.57;1.63;;;;;;;;;;3615582;39;19956;-62
2021/05/23 02:13:07;;;;;;;4.22;1.60;;;;;;;;;;3616102;39;20034;-62
2021/05/23 02:15:34;;;;;;;3.50;1.02;;;;;;;;;;3617058;39;20023;-62
2021/05/23 02:17:59;;;;;;;5.00;1.63;;;;;;;;;;3615228;39;20072;-61
2021/05/23 02:20:30;;;;;;;4.38;1.50;;;;;;;;;;3616224;39;20435;-61
2021/05/23 02:22:57;;;;;;;2.70;1.40;;;;;;;;;;3616188;39;20038;-61
2021/05/23 02:25:24;;;;;;;3.33;1.27;;;;;;;;;;3612404;39;20451;-62
2021/05/23 02:27:52;;;;;;;2.45;1.23;;;;;;;;;;3615593;39;20031;-62
2021/05/23 02:30:23;;;;;;;4.20;1.05;;;;;;;;;;3616264;39;20460;-61
2021/05/23 02:32:49;;;;;;;3.40;1.35;;;;;;;;;;3616052;39;20027;-62
2021/05/23 02:35:17;;;;;;;3.25;1.08;;;;;;;;;;3616307;39;20031;-61
2021/05/23 02:37:42;;;;;;;6.35;1.30;;;;;;;;;;3615631;39;20031;-61
2021/05/23 02:40:13;;;;;;;4.97;1.42;;;;;;;;;;3616125;39;20389;-61
2021/05/23 02:42:40;;;;;;;4.07;1.23;;;;;;;;;;3615866;39;20132;-62
2021/05/23 02:45:07;;;;;;;4.97;1.20;;;;;;;;;;3606186;39;20031;-61
2021/05/23 02:47:33;;;;;;;3.42;1.10;;;;;;;;;;3615431;39;20034;-61
2021/05/23 02:49:58;;;;;;;5.82;1.67;;;;;;;;;;3616209;39;20031;-61
2021/05/23 02:52:24;;;;;;;6.43;1.40;;;;;;;;;;3606298;39;20044;-61
2021/05/23 02:54:51;;;;;;;4.30;1.85;;;;;;;;;;3615634;39;20043;-61
2021/05/23 02:57:17;;;;;;;8.27;2.00;;;;;;;;;;3616615;39;20038;-61
2021/05/23 02:59:42;;;;;;;4.70;1.63;;;;;;;;;;3617441;39;20051;-62
2021/05/23 03:02:08;;;;;;;5.60;1.55;;;;;;;;;;3607266;39;20059;-61
2021/05/23 03:04:34;;;;;;;3.60;1.05;;;;;;;;;;3617497;39;20044;-61
2021/05/23 03:06:59;;;;;;;4.43;1.38;;;;;;;;;;3617117;39;20305;-61
2021/05/23 03:09:25;;;;;;;4.03;1.20;;;;;;;;;;3618266;39;20046;-62
2021/05/23 03:11:51;;;;;;;4.05;1.20;;;;;;;;;;3617174;39;20036;-61
2021/05/23 03:14:16;;;;;;;6.60;1.20;;;;;;;;;;3617446;39;20238;-61
2021/05/23 03:16:42;;;;;;;3.00;1.30;;;;;;;;;;3618617;39;20039;-62
2021/05/23 03:19:07;;;;;;;2.85;1.27;;;;;;;;;;3618345;39;20043;-61
2021/05/23 03:21:33;;;;;;;4.32;1.52;;;;;;;;;;3616374;39;20053;-62
2021/05/23 03:23:59;;;;;;;5.18;1.15;;;;;;;;;;3618700;39;20115;-62
2021/05/23 03:26:24;;;;;;;4.47;1.38;;;;;;;;;;3618547;39;20356;-62
2021/05/23 03:28:50;;;;;;;3.45;1.25;;;;;;;;;;3617625;39;20374;-61
2021/05/23 03:31:15;;;;;;;4.60;1.25;;;;;;;;;;3618315;39;20067;-61
2021/05/23 03:33:40;;;;;;;6.40;1.30;;;;;;;;;;3619369;39;20462;-61
2021/05/23 03:36:06;;;;;;;7.00;1.50;;;;;;;;;;3618409;39;20161;-61
2021/05/23 03:38:32;;;;;;;3.03;1.25;;;;;;;;;;3616937;39;20358;-61
2021/05/23 03:40:58;;;;;;;9.30;1.10;;;;;;;;;;3618963;39;20043;-61
2021/05/23 03:43:24;;;;;;;8.48;1.30;;;;;;;;;;3618200;39;20052;-61
2021/05/23 03:45:49;;;;;;;5.72;1.95;;;;;;;;;;3618455;39;20365;-61
2021/05/23 03:48:15;;;;;;;4.38;1.15;;;;;;;;;;3617355;39;20058;-62
2021/05/23 03:50:40;;;;;;;2.97;1.00;;;;;;;;;;3617495;39;20020;-61
2021/05/23 03:53:06;;;;;;;4.95;1.35;;;;;;;;;;3616625;39;20404;-61
2021/05/23 03:55:31;;;;;;;7.53;1.30;;;;;;;;;;3617423;39;20285;-61
2021/05/23 03:57:57;;;;;;;4.00;1.48;;;;;;;;;;3617500;39;20403;-62
2021/05/23 04:00:24;;;;;;;3.25;1.25;;;;;;;;;;3616861;39;20459;-61
2021/05/23 04:02:53;;;;;;;3.10;1.30;;;;;;;;;;3616114;39;20055;-61
2021/05/23 04:05:19;;;;;;;4.43;1.33;;;;;;;;;;3617107;39;20035;-62
2021/05/23 04:07:44;;;;;;;3.10;1.08;;;;;;;;;;3616805;39;20085;-62
2021/05/23 04:10:12;;;;;;;2.90;0.95;;;;;;;;;;3617130;39;20031;-61
2021/05/23 04:12:43;;;;;;;2.97;0.93;;;;;;;;;;3616661;39;20042;-62
2021/05/23 04:15:09;;;;;;;5.68;1.75;;;;;;;;;;3616697;39;20035;-61
2021/05/23 04:17:36;;;;;;;3.35;1.30;;;;;;;;;;3616877;39;20075;-62
2021/05/23 04:20:07;;;;;;;4.22;1.55;;;;;;;;;;3616645;39;20023;-62
2021/05/23 04:22:32;;;;;;;;;;;;;;;;;;3617541;39;20037;-61
2021/05/23 04:25:00;;;;;;;2.97;1.20;;;;;;;;;;3616574;39;19924;-62
2021/05/23 04:27:26;;;;;;;4.45;1.02;;;;;;;;;;3607373;39;20039;-61
2021/05/23 04:29:51;;;;;;;2.47;0.98;;;;;;;;;;3619069;39;20041;-61
2021/05/23 04:32:17;;;;;;;2.53;1.02;;;;;;;;;;3618026;39;20020;-62
2021/05/23 04:34:42;;;;;;;3.67;1.42;;;;;;;;;;3617331;39;20285;-61
2021/05/23 04:37:08;;;;;;;4.40;1.48;;;;;;;;;;3618325;39;20139;-62
2021/05/23 04:39:34;;;;;;;4.18;1.10;;;;;;;;;;3617959;39;20035;-61
2021/05/23 04:41:59;;;;;;;4.20;1.20;;;;;;;;;;3618110;39;20028;-61
2021/05/23 04:44:25;;;;;;;2.83;1.20;;;;;;;;;;3617696;39;20049;-62
2021/05/23 04:46:50;;;;;;;3.47;1.10;;;;;;;;;;3618332;39;20235;-61
2021/05/23 04:49:16;;;;;;;5.35;1.35;;;;;;;;;;3617526;39;20043;-62
2021/05/23 04:51:42;;;;;;;2.75;0.88;;;;;;;;;;3616470;39;20031;-62
2021/05/23 04:54:07;;;;;;;3.95;1.20;;;;;;;;;;3616920;39;20050;-62
2021/05/23 04:56:33;;;;;;;4.45;1.35;;;;;;;;;;3619056;39;20046;-62
2021/05/23 04:58:58;;;;;;;3.20;1.30;;;;;;;;;;3616318;39;20663;-62
2021/05/23 05:01:24;;;;;;;6.10;1.52;;;;;;;;;;3616836;39;20035;-62
2021/05/23 05:03:49;;;;;;;4.07;1.52;;;;;;;;;;3619297;39;20030;-62
2021/05/23 05:06:14;;;;;;;2.53;1.33;;;;;;;;;;3618602;39;20035;-62
2021/05/23 05:08:40;;;;;;;3.47;1.38;;;;;;;;;;3619015;39;20368;-61
2021/05/23 05:11:05;;;;;;;3.95;1.52;;;;;;;;;;3615777;39;20127;-61
2021/05/23 05:13:31;;;;;;;4.00;1.55;;;;;;;;;;3616358;39;20035;-62
2021/05/23 05:15:56;;;;;;;6.40;1.30;;;;;;;;;;3616754;39;20152;-62
2021/05/23 05:18:21;;;;;;;3.17;1.42;;;;;;;;;;3616485;39;20035;-61
2021/05/23 05:20:47;;;;;;;4.82;1.73;;;;;;;;;;3615837;39;20370;-62
2021/05/23 05:23:12;;;;;;;3.25;1.40;;;;;;;;;;3616862;39;20027;-62
2021/05/23 05:25:38;;;;;;;3.15;1.40;;;;;;;;;;3616636;39;20028;-61
2021/05/23 05:28:03;;;;;;;4.75;1.73;;;;;;;;;;3617439;39;20634;-61
2021/05/23 05:30:29;;;;;;;2.05;1.10;;;;;;;;;;3615868;39;20439;-61
2021/05/23 05:32:54;;;;;;;3.20;1.50;;;;;;;;;;3616590;39;20043;-61
2021/05/23 05:35:20;;;;;;;3.13;1.63;;;;;;;;;;3616621;39;20043;-61
2021/05/23 05:37:45;;;;;;;3.65;1.33;;;;;;;;;;3616195;39;20055;-61
2021/05/23 05:40:12;;;;;;;4.15;1.73;;;;;;;;;;3607273;39;20035;-61
2021/05/23 05:42:38;;;;;;;10.43;4.38;;;;;;;;;;3616468;39;20031;-61
2021/05/23 05:45:04;;;;;;;4.43;2.30;;;;;;;;;;3604963;39;20294;-61
2021/05/23 05:47:29;;;;;;;4.32;1.75;;;;;;;;;;3616386;39;20059;-61
2021/05/23 05:49:54;;;;;;;4.25;1.88;;;;;;;;;;3616627;39;20038;-62
2021/05/23 05:52:20;;;;;;;3.30;1.45;;;;;;;;;;3616102;39;20039;-61
2021/05/23 05:54:45;;;;;;;3.55;1.23;;;;;;;;;;3615756;39;20046;-61
2021/05/23 05:57:11;;;;;;;5.10;1.38;;;;;;;;;;3617639;39;20298;-61
2021/05/23 05:59:36;;;;;;;4.00;1.55;;;;;;;;;;3616357;39;20069;-62
2021/05/23 06:02:02;;;;;;;5.20;1.80;;;;;;;;;;3616174;39;20036;-61
2021/05/23 06:04:27;;;;;;;2.67;1.30;;;;;;;;;;3616201;39;20492;-61
2021/05/23 06:06:53;;;;;;;5.90;1.63;;;;;;;;;;3616001;39;20035;-61
2021/05/23 06:09:18;;;;;;;6.93;1.95;;;;;;;;;;3616306;39;20558;-61
2021/05/23 06:11:44;;;;;;;2.35;1.17;;;;;;;;;;3615288;39;20060;-61
2021/05/23 06:14:09;;;;;;;9.20;3.92;;;;;;;;;;3617904;39;20384;-61
2021/05/23 06:16:34;;;;;;;5.85;1.88;;;;;;;;;;3618304;39;20321;-62
2021/05/23 06:19:00;;;;;;;6.00;1.58;;;;;;;;;;3617098;39;20355;-61
2021/05/23 06:21:25;;;;;;;3.03;1.20;;;;;;;;;;3606350;39;20135;-61
2021/05/23 06:23:51;;;;;;;3.92;1.55;;;;;;;;;;3616387;39;20035;-62
2021/05/23 06:26:16;;;;;;;3.17;1.20;;;;;;;;;;3614352;39;20393;-60
2021/05/23 06:28:42;;;;;;;4.28;1.52;;;;;;;;;;3614902;39;20051;-61
2021/05/23 06:31:08;;;;;;;4.95;1.80;;;;;;;;;;3616220;39;20023;-61
2021/05/23 06:33:34;;;;;;;5.43;1.50;;;;;;;;;;3614185;39;20059;-61
2021/05/23 06:35:59;;;;;;;3.45;1.30;;;;;;;;;;3617638;39;20038;-61
2021/05/23 06:38:25;;;;;;;3.60;1.50;;;;;;;;;;3616002;39;20036;-61
2021/05/23 06:40:50;;;;;;;4.03;1.63;;;;;;;;;;3616305;39;20047;-61
2021/05/23 06:43:16;;;;;;;5.47;1.67;;;;;;;;;;3615697;39;20047;-61
2021/05/23 06:45:41;;;;;;;3.05;1.40;;;;;;;;;;3606646;39;20039;-61
2021/05/23 06:48:09;;;;;;;3.30;1.35;;;;;;;;;;3605037;39;20031;-61
2021/05/23 06:50:34;;;;;;;3.63;1.23;;;;;;;;;;3606914;39;20282;-61
2021/05/23 06:53:00;;;;;;;3.83;1.48;;;;;;;;;;3615612;39;20028;-61
2021/05/23 06:55:25;;;;;;;4.43;1.60;;;;;;;;;;3613743;39;20373;-62
2021/05/23 06:57:50;;;;;;;2.67;1.10;;;;;;;;;;3606378;39;20672;-62
2021/05/23 07:00:16;;;;;;;4.25;1.50;;;;;;;;;;3616521;39;20035;-61
2021/05/23 07:02:42;;;;;;;4.53;1.40;;;;;;;;;;3615461;39;20039;-61
2021/05/23 07:05:08;;;;;;;4.32;1.98;;;;;;;;;;3616431;39;20068;-61
2021/05/23 07:07:34;;;;;;;4.22;1.60;;;;;;;;;;3615196;39;20072;-62
2021/05/23 07:09:59;;;;;;;3.10;1.40;;;;;;;;;;3615002;39;20454;-62
2021/05/23 07:12:25;;;;;;;3.65;1.40;;;;;;;;;;3615675;39;20054;-63
2021/05/23 07:14:50;;;;;;;3.65;1.50;;;;;;;;;;3615530;39;20027;-62
2021/05/23 07:17:16;;;;;;;5.38;1.75;;;;;;;;;;3615047;39;20075;-62
2021/05/23 07:19:41;;;;;;;5.18;1.70;;;;;;;;;;3615769;39;20164;-63
2021/05/23 07:22:07;;;;;;;6.00;1.42;;;;;;;;;;3614968;39;20031;-61
2021/05/23 07:24:32;;;;;;;5.28;1.30;;;;;;;;;;3606020;39;20363;-62
2021/05/23 07:26:58;;;;;;;4.43;1.70;;;;;;;;;;3605587;39;20374;-61
2021/05/23 07:29:23;;;;;;;4.32;2.08;;;;;;;;;;3616360;39;20075;-62
2021/05/23 07:31:49;;;;;;;4.10;1.33;;;;;;;;;;3616733;39;20050;-61
2021/05/23 07:34:14;;;;;;;4.70;1.23;;;;;;;;;;3616087;39;20266;-62
2021/05/23 07:36:40;;;;;;;2.95;0.80;;;;;;;;;;3616899;39;20081;-61
2021/05/23 07:39:05;;;;;;;2.92;0.95;;;;;;;;;;3605970;39;20123;-62
2021/05/23 07:41:31;;;;;;;3.15;1.08;;;;;;;;;;3616311;39;20039;-65
2021/05/23 07:43:56;;;;;;;2.63;0.90;;;;;;;;;;3617788;39;20026;-62
2021/05/23 07:46:21;;;;;;;2.50;1.05;;;;;;;;;;3618192;39;20096;-61
2021/05/23 07:48:47;;;;;;;3.40;1.42;;;;;;;;;;3617404;39;20027;-61
2021/05/23 07:51:12;;;;;;;2.33;1.00;;;;;;;;;;3618775;39;20028;-61
2021/05/23 07:53:38;;;;;;;3.15;0.95;;;;;;;;;;3618701;39;20031;-61
2021/05/23 07:56:04;;;;;;;2.85;0.98;;;;;;;;;;3617989;39;20108;-61
2021/05/23 07:58:29;;;;;;;3.75;0.90;;;;;;;;;;3607012;39;20027;-61
2021/05/23 08:00:55;;;;;;;4.15;1.27;;;;;;;;;;3618138;39;20040;-62
2021/05/23 08:03:21;;;;;;;2.88;1.02;;;;;;;;;;3617944;39;20058;-62
2021/05/23 08:05:46;;;;;;;2.83;1.10;;;;;;;;;;3616978;39;20043;-61
2021/05/23 08:08:12;;;;;;;3.88;1.23;;;;;;;;;;3618017;39;20099;-61
2021/05/23 08:10:37;;;;;;;3.45;1.23;;;;;;;;;;3617467;39;20386;-61
2021/05/23 08:13:04;;;;;;;5.97;1.08;;;;;;;;;;3617666;39;20039;-61
2021/05/23 08:15:31;;;;;;;4.28;1.10;;;;;;;;;;3616679;39;20040;-61
2021/05/23 08:17:56;;;;;;;3.60;1.10;;;;;;;;;;3617214;39;20621;-61
2021/05/23 08:20:21;;;;;;;4.45;1.17;;;;;;;;;;3617015;39;20036;-61
2021/05/23 08:22:47;;;;;;;3.15;0.85;;;;;;;;;;3616146;39;20742;-61
2021/05/23 08:25:13;;;;;;;3.22;1.00;;;;;;;;;;3617190;39;20028;-61
2021/05/23 08:27:39;;;;;;;2.33;0.90;;;;;;;;;;3616967;39;20408;-61
2021/05/23 08:30:05;;;;;;;6.85;1.10;;;;;;;;;;3615355;39;20072;-61
2021/05/23 08:32:31;;;;;;;3.17;0.90;;;;;;;;;;3616998;39;20385;-61
2021/05/23 08:34:56;;;;;;;3.22;1.30;;;;;;;;;;3616850;39;20035;-61
2021/05/23 08:37:22;;;;;;;4.38;1.23;;;;;;;;;;3615941;39;20051;-61
2021/05/23 08:39:47;;;;;;;4.90;1.85;;;;;;;;;;3615219;39;20039;-61
2021/05/23 08:42:13;;;;;;;4.32;1.08;;;;;;;;;;3616010;39;20262;-61
2021/05/23 08:44:39;;;;;;;2.78;1.10;;;;;;;;;;3616674;39;20051;-62
2021/05/23 08:47:04;;;;;;;3.75;1.00;;;;;;;;;;3616237;39;20038;-61
2021/05/23 08:49:31;;;;;;;5.93;1.30;;;;;;;;;;3617145;39;20042;-61
2021/05/23 08:51:57;;;;;;;2.53;0.90;;;;;;;;;;3617054;39;20038;-61
2021/05/23 08:54:22;;;;;;;3.65;1.23;;;;;;;;;;3614898;39;20062;-61
2021/05/23 08:56:51;;;;;;;13.60;1.80;;;;;;;;;;3615367;39;20028;-62
2021/05/23 08:59:17;;;;;;;6.53;1.40;;;;;;;;;;3616476;39;20031;-61
2021/05/23 09:01:43;;;;;;;4.47;1.15;;;;;;;;;;3607115;39;20354;-62
2021/05/23 09:04:15;;;;;;;4.22;1.30;;;;;;;;;;3616729;39;20038;-61
2021/05/23 09:06:40;;;;;;;5.82;1.15;;;;;;;;;;3616406;39;20287;-61
2021/05/23 09:09:08;;;;;;;3.10;1.23;;;;;;;;;;3617242;39;20039;-61
2021/05/23 09:11:35;;;;;;;4.45;1.00;;;;;;;;;;3615711;39;20034;-61
2021/05/23 09:14:01;;;;;;;6.55;1.23;;;;;;;;;;3616050;39;20039;-61
2021/05/23 09:16:36;;;;;;;7.78;1.55;;;;;;;;;;3617090;39;20374;-63
2021/05/23 09:19:02;;;;;;;6.78;1.45;;;;;;;;;;3607144;39;20385;-62
2021/05/23 09:21:30;;;;;;;3.72;1.33;;;;;;;;;;3616234;39;20028;-61
2021/05/23 09:24:03;;;;;;;5.30;1.30;;;;;;;;;;3616901;39;20124;-61
2021/05/23 09:26:33;;;;;;;2.83;1.05;;;;;;;;;;3618311;39;20086;-62
2021/05/23 09:29:12;;;;;;;3.38;1.23;;;;;;;;;;3617924;39;20144;-61
2021/05/23 09:31:37;;;;;;;3.53;1.20;;;;;;;;;;3617525;39;20031;-61
2021/05/23 09:34:03;;;;;;;6.90;2.38;;;;;;;;;;3616640;39;20032;-61
2021/05/23 09:36:29;;;;;;;3.67;1.05;;;;;;;;;;3606922;39;20397;-61
2021/05/23 09:39:00;;;;;;;10.00;2.17;;;;;;;;;;3616391;39;20043;-62
2021/05/23 09:41:32;;;;;;;4.78;1.70;;;;;;;;;;3606439;39;20086;-61
2021/05/23 09:44:10;;;;;;;4.10;1.23;;;;;;;;;;3615303;39;20036;-60
2021/05/23 09:46:48;;;;;;;5.32;1.48;;;;;;;;;;3615506;39;20039;-61
2021/05/23 09:49:15;;;;;;;5.65;1.00;;;;;;;;;;3616166;39;20027;-61
2021/05/23 09:51:56;;;;;;;2.60;1.00;;;;;;;;;;3617281;39;20529;-61
2021/05/23 09:54:24;;;;;;;3.00;1.13;;;;;;;;;;3616822;39;20059;-61
2021/05/23 09:56:49;;;;;;;3.88;1.15;;;;;;;;;;3618500;39;20038;-63
2021/05/23 09:59:26;;;;;;;2.53;0.95;;;;;;;;;;3617523;39;20354;-61
2021/05/23 10:01:52;;;;;;;4.32;1.30;;;;;;;;;;3606608;39;20047;-62
2021/05/23 10:04:23;;;;;;;2.80;0.95;;;;;;;;;;3616440;39;20035;-63
2021/05/23 10:07:09;;;;;;;3.38;1.00;;;;;;;;;;3606321;39;20071;-62
2021/05/23 10:09:35;;;;;;;2.92;1.35;;;;;;;;;;3615414;39;20064;-62
2021/05/23 10:12:02;;;;;;;7.78;2.40;;;;;;;;;;3616166;39;20031;-61
2021/05/23 10:14:28;;;;;;;5.45;2.83;;;;;;;;;;3615834;39;20063;-64
2021/05/23 10:16:55;;;;;;;4.85;2.00;;;;;;;;;;3616487;39;20274;-61
2021/05/23 10:19:25;;;;;;;19.10;7.93;;;;;;;;;;3614726;39;20098;-61
2021/05/23 10:21:52;;;;;;;30.90;10.40;;;;;;;;;;3613495;39;20118;-61
2021/05/23 10:24:25;;;;;;;22.02;10.15;;;;;;;;;;3613553;39;20043;-61
2021/05/23 10:26:55;;;;;;;15.15;6.85;;;;;;;;;;3613161;39;20050;-62
2021/05/23 10:29:22;;;;;;;14.87;8.20;;;;;;;;;;3611700;39;20034;-59
2021/05/23 10:31:47;;;;;;;6.03;2.35;;;;;;;;;;3606034;39;20035;-60
2021/05/23 10:34:13;;;;;;;8.52;2.70;;;;;;;;;;3615101;39;20058;-61
2021/05/23 10:36:41;;;;;;;5.35;2.30;;;;;;;;;;3614811;39;20291;-60
2021/05/23 10:39:12;;;;;;;5.85;2.05;;;;;;;;;;3615024;39;20027;-60
2021/05/23 10:41:39;;;;;;;6.00;2.50;;;;;;;;;;3615629;39;20116;-60
2021/05/23 10:44:06;;;;;;;4.70;1.80;;;;;;;;;;3615430;39;20023;-60
2021/05/23 10:46:42;;;;;;;4.72;2.33;;;;;;;;;;3614605;39;20035;-62
2021/05/23 10:49:08;;;;;;;4.05;1.48;;;;;;;;;;3613276;39;20055;-62
2021/05/23 10:51:33;;;;;;;3.13;1.52;;;;;;;;;;3615612;39;20270;-59
2021/05/23 10:53:59;;;;;;;5.60;2.53;;;;;;;;;;3606443;39;20058;-59
2021/05/23 10:56:30;;;;;;;3.38;1.55;;;;;;;;;;3615150;39;20539;-60
2021/05/23 10:58:57;;;;;;;6.00;1.92;;;;;;;;;;3616202;39;20073;-61
2021/05/23 11:01:41;;;;;;;4.65;1.80;;;;;;;;;;3617024;39;20096;-61
2021/05/23 11:04:11;;;;;;;3.17;1.45;;;;;;;;;;3614549;39;20039;-60
2021/05/23 11:06:37;;;;;;;3.10;1.55;;;;;;;;;;3615027;39;20298;-60
2021/05/23 11:09:07;;;;;;;3.60;1.65;;;;;;;;;;3615767;39;20468;-61
2021/05/23 11:11:32;;;;;;;10.00;1.63;;;;;;;;;;3607066;39;20090;-61
2021/05/23 11:14:14;;;;;;;3.50;1.45;;;;;;;;;;3614243;39;20635;-62
2021/05/23 11:16:48;;;;;;;3.80;2.05;;;;;;;;;;3617447;39;20050;-62
2021/05/23 11:19:14;;;;;;;5.25;2.08;;;;;;;;;;3617134;39;20047;-65
2021/05/23 11:21:43;;;;;;;3.17;1.42;;;;;;;;;;3617242;39;20051;-61
2021/05/23 11:24:10;;;;;;;2.75;1.58;;;;;;;;;;3616201;39;20039;-60
2021/05/23 11:26:36;;;;;;;3.20;1.33;;;;;;;;;;3617231;39;20055;-60
2021/05/23 11:29:03;;;;;;;3.22;1.67;;;;;;;;;;3617151;39;20127;-59
2021/05/23 11:31:34;;;;;;;7.35;1.20;;;;;;;;;;3616162;39;20106;-60
2021/05/23 11:34:01;;;;;;;4.30;1.30;;;;;;;;;;3616780;39;20301;-62
2021/05/23 11:36:47;;;;;;;2.50;0.80;;;;;;;;;;3617299;39;20040;-61
2021/05/23 11:39:14;;;;;;;9.82;1.52;;;;;;;;;;3614616;39;20057;-61
2021/05/23 11:41:42;;;;;;;3.50;1.50;;;;;;;;;;3616575;39;20390;-61
2021/05/23 11:44:10;;;;;;;2.88;1.30;;;;;;;;;;3616570;39;20394;-61
2021/05/23 11:46:38;;;;;;;3.47;1.05;;;;;;;;;;3616339;39;20027;-65
2021/05/23 11:49:03;;;;;;;3.17;0.80;;;;;;;;;;3615908;39;20031;-62
2021/05/23 11:51:31;;;;;;;1.02;0.57;;;;;;;;;;3616864;39;20039;-61
2021/05/23 11:53:59;;;;;;;3.63;1.10;;;;;;;;;;3607225;39;20055;-61
2021/05/23 11:56:26;;;;;;;2.20;0.60;;;;;;;;;;3615949;39;20301;-61
2021/05/23 11:58:57;;;;;;;2.63;0.82;;;;;;;;;;3617529;39;20360;-61
2021/05/23 12:01:33;;;;;;;3.70;0.95;;;;;;;;;;3614661;39;20131;-61
2021/05/23 12:04:10;;;;;;;3.13;0.80;;;;;;;;;;3614921;39;20051;-59
2021/05/23 12:07:02;;;;;;;2.75;1.30;;;;;;;;;;3615338;39;20169;-59
2021/05/23 12:09:28;;;;;;;3.63;1.45;;;;;;;;;;3614256;39;20039;-62
2021/05/23 12:11:56;;;;;;;4.78;1.48;;;;;;;;;;3617008;39;20039;-61
2021/05/23 12:14:33;;;;;;;2.15;0.98;;;;;;;;;;3615789;39;20059;-62
2021/05/23 12:17:07;;;;;;;3.88;1.42;;;;;;;;;;3616514;39;20047;-62
2021/05/23 12:19:57;;;;;;;2.20;0.93;;;;;;;;;;3605418;39;20047;-60
2021/05/23 12:22:25;;;;;;;2.08;0.80;;;;;;;;;;3615556;39;20055;-60
2021/05/23 12:24:52;;;;;;;5.32;1.00;;;;;;;;;;3615944;39;20392;-61
2021/05/23 12:27:36;;;;;;;3.00;0.70;;;;;;;;;;3615452;39;20020;-60
2021/05/23 12:30:14;;;;;;;3.97;1.00;;;;;;;;;;3616810;39;20046;-64
2021/05/23 12:32:57;;;;;;;2.88;0.90;;;;;;;;;;3616685;39;20051;-60
2021/05/23 12:35:30;;;;;;;2.55;0.82;;;;;;;;;;3616520;39;20028;-60
2021/05/23 12:37:59;;;;;;;1.73;0.70;;;;;;;;;;3617456;39;20051;-61
2021/05/23 12:40:32;;;;;;;8.27;0.70;;;;;;;;;;3617347;39;20071;-61
2021/05/23 12:43:33;;;;;;;2.30;0.70;;;;;;;;;;3616981;39;20035;-62
2021/05/23 12:45:58;;;;;;;10.43;2.38;;;;;;;;;;3585141;39;20036;-62
2021/05/23 12:48:25;;;;;;;2.38;1.20;;;;;;;;;;3616300;39;20042;-63
2021/05/23 12:50:55;;;;;;;6.53;1.80;;;;;;;;;;3607421;39;20404;-62
2021/05/23 12:53:30;;;;;;;4.30;1.70;;;;;;;;;;3616619;39;20131;-61
2021/05/23 12:56:07;;;;;;;4.75;1.17;;;;;;;;;;3616784;39;20054;-61
2021/05/23 12:58:42;;;;;;;2.65;1.13;;;;;;;;;;3618878;39;20031;-62
2021/05/23 13:01:12;;;;;;;2.53;1.10;;;;;;;;;;3618515;39;20309;-61
2021/05/23 13:03:38;;;;;;;2.70;0.85;;;;;;;;;;3615961;39;20108;-62
2021/05/23 13:06:03;;;;;;;2.63;1.13;;;;;;;;;;3617588;39;20027;-62
2021/05/23 13:08:30;;;;;;;4.70;1.60;;;;;;;;;;3617022;39;20043;-62
2021/05/23 13:10:56;;;;;;;6.00;1.10;;;;;;;;;;3606985;39;20414;-62
2021/05/23 13:13:21;;;;;;;2.95;1.02;;;;;;;;;;3615939;39;20055;-62
2021/05/23 13:15:46;;;;;;;2.33;1.15;;;;;;;;;;3615934;39;20438;-62
2021/05/23 13:18:12;;;;;;;2.50;1.10;;;;;;;;;;3616053;39;20039;-62
2021/05/23 13:20:38;;;;;;;3.70;0.75;;;;;;;;;;3616808;39;20112;-62
2021/05/23 13:23:08;;;;;;;2.28;0.70;;;;;;;;;;3615987;39;20027;-62
2021/05/23 13:25:33;;;;;;;4.38;0.80;;;;;;;;;;3616570;39;20042;-62
2021/05/23 13:27:59;;;;;;;12.82;6.03;;;;;;;;;;3616809;39;20443;-63
2021/05/23 13:30:29;;;;;;;2.67;1.00;;;;;;;;;;3616561;39;20039;-62
2021/05/23 13:32:56;;;;;;;1.92;0.98;;;;;;;;;;3615821;39;20244;-62
2021/05/23 13:35:22;;;;;;;3.95;1.33;;;;;;;;;;3615827;39;20046;-62
2021/05/23 13:37:51;;;;;;;4.30;2.05;;;;;;;;;;3615414;39;20027;-62
2021/05/23 13:40:17;;;;;;;6.40;2.60;;;;;;;;;;3615637;39;20046;-63
2021/05/23 13:42:44;;;;;;;5.05;2.50;;;;;;;;;;3613857;39;20386;-63
2021/05/23 13:45:10;;;;;;;3.85;1.70;;;;;;;;;;3615883;39;20043;-63
2021/05/23 13:47:35;;;;;;;3.88;1.30;;;;;;;;;;3614832;39;20324;-62
2021/05/23 13:50:01;;;;;;;1.45;0.60;;;;;;;;;;3615852;39;20492;-62
2021/05/23 13:52:27;;;;;;;3.28;0.88;;;;;;;;;;3616076;39;20050;-63
2021/05/23 13:54:54;;;;;;;2.25;0.70;;;;;;;;;;3616827;39;20035;-62
2021/05/23 13:57:19;;;;;;;2.90;0.90;;;;;;;;;;3607012;39;20411;-63
2021/05/23 13:59:44;;;;;;;3.28;2.08;;;;;;;;;;3615614;39;20043;-63
2021/05/23 14:02:10;;;;;;;5.75;3.20;;;;;;;;;;3616269;39;20128;-63
2021/05/23 14:04:37;;;;;;;1.58;0.70;;;;;;;;;;3607177;39;20046;-62
2021/05/23 14:07:02;;;;;;;2.80;1.10;;;;;;;;;;3616386;39;20057;-62
2021/05/23 14:09:28;;;;;;;2.17;0.80;;;;;;;;;;3606902;39;20027;-63
2021/05/23 14:11:53;;;;;;;2.10;0.93;;;;;;;;;;3616338;39;20259;-63
2021/05/23 14:14:18;;;;;;;2.63;0.80;;;;;;;;;;3616264;39;20117;-63
2021/05/23 14:16:44;;;;;;;2.25;0.73;;;;;;;;;;3616194;39;20063;-62
2021/05/23 14:19:10;;;;;;;2.33;0.95;;;;;;;;;;3615981;39;20027;-62
2021/05/23 14:21:36;;;;;;;2.05;0.70;;;;;;;;;;3616393;39;20385;-63
2021/05/23 14:24:01;;;;;;;2.08;0.60;;;;;;;;;;3607144;39;20255;-60
2021/05/23 14:26:27;;;;;;;3.10;0.80;;;;;;;;;;3616621;39;20028;-62
2021/05/23 14:28:54;;;;;;;3.63;1.60;;;;;;;;;;3616308;39;20047;-62
2021/05/23 14:31:21;;;;;;;1.85;0.80;;;;;;;;;;3616107;39;20358;-62
2021/05/23 14:33:50;;;;;;;3.28;1.38;;;;;;;;;;3614876;39;20042;-60
2021/05/23 14:36:16;;;;;;;1.00;0.60;;;;;;;;;;3615701;39;20084;-62
2021/05/23 14:38:42;;;;;;;4.47;2.25;;;;;;;;;;3616028;39;20046;-62
2021/05/23 14:41:09;;;;;;;2.60;0.82;;;;;;;;;;3615479;39;20047;-62
2021/05/23 14:43:35;;;;;;;1.60;0.80;;;;;;;;;;3615133;39;20051;-62
2021/05/23 14:46:02;;;;;;;2.42;1.05;;;;;;;;;;3615531;39;20270;-62